sensor_id;sensor_type;location;lat;lon;timestamp;pressure;altitude;pressure_sealevel;temperature;humidity
60240;BME280;46102;39.012;-7.064;2023-03-31T00:01:42;99397.63;;;15.34;86.08
60240;BME280;46102;39.012;-7.064;2023-03-31T00:03:43;99394.19;;;15.37;86.10
60240;BME280;46102;39.012;-7.064;2023-03-31T00:05:43;99402.50;;;15.37;85.61
60240;BME280;46102;39.012;-7.064;2023-03-31T00:07:47;99403.78;;;15.31;86.07
60240;BME280;46102;39.012;-7.064;2023-03-31T00:09:48;99402.66;;;15.32;85.90
60240;BME280;46102;39.012;-7.064;2023-03-31T00:11:49;99388.66;;;15.37;85.83
60240;BME280;46102;39.012;-7.064;2023-03-31T00:13:50;99384.63;;;15.34;85.87
60240;BME280;46102;39.012;-7.064;2023-03-31T00:15:59;99382.66;;;15.35;85.80
60240;BME280;46102;39.012;-7.064;2023-03-31T00:18:00;99385.41;;;15.35;85.49
60240;BME280;46102;39.012;-7.064;2023-03-31T00:20:01;99393.06;;;15.38;85.26
60240;BME280;46102;39.012;-7.064;2023-03-31T00:22:05;99382.34;;;15.36;85.29
60240;BME280;46102;39.012;-7.064;2023-03-31T00:24:06;99383.78;;;15.43;85.25
60240;BME280;46102;39.012;-7.064;2023-03-31T00:26:07;99380.19;;;15.42;84.72
60240;BME280;46102;39.012;-7.064;2023-03-31T00:28:08;99388.97;;;15.44;84.69
60240;BME280;46102;39.012;-7.064;2023-03-31T00:30:10;99381.84;;;15.43;84.64
60240;BME280;46102;39.012;-7.064;2023-03-31T00:32:11;99384.09;;;15.41;84.61
60240;BME280;46102;39.012;-7.064;2023-03-31T00:34:14;99392.22;;;15.46;84.26
60240;BME280;46102;39.012;-7.064;2023-03-31T00:36:14;99388.84;;;15.40;83.99
60240;BME280;46102;39.012;-7.064;2023-03-31T00:38:20;99391.13;;;15.38;83.98
60240;BME280;46102;39.012;-7.064;2023-03-31T00:40:21;99399.06;;;15.40;83.80
60240;BME280;46102;39.012;-7.064;2023-03-31T00:42:22;99391.13;;;15.38;83.83
60240;BME280;46102;39.012;-7.064;2023-03-31T00:44:24;99405.44;;;15.32;83.91
60240;BME280;46102;39.012;-7.064;2023-03-31T00:46:33;99396.34;;;15.31;83.58
60240;BME280;46102;39.012;-7.064;2023-03-31T00:48:35;99402.50;;;15.28;83.65
60240;BME280;46102;39.012;-7.064;2023-03-31T00:50:47;99401.38;;;15.38;82.90
60240;BME280;46102;39.012;-7.064;2023-03-31T00:52:54;99384.44;;;15.31;83.23
60240;BME280;46102;39.012;-7.064;2023-03-31T00:55:02;99376.63;;;15.33;82.75
60240;BME280;46102;39.012;-7.064;2023-03-31T00:57:05;99394.38;;;15.32;82.26
60240;BME280;46102;39.012;-7.064;2023-03-31T00:59:10;99396.47;;;15.35;81.44
60240;BME280;46102;39.012;-7.064;2023-03-31T01:01:15;99399.25;;;15.26;81.75
60240;BME280;46102;39.012;-7.064;2023-03-31T01:03:18;99395.88;;;15.20;81.87
60240;BME280;46102;39.012;-7.064;2023-03-31T01:05:33;99394.09;;;15.16;81.83
60240;BME280;46102;39.012;-7.064;2023-03-31T01:07:43;99389.06;;;15.09;82.25
60240;BME280;46102;39.012;-7.064;2023-03-31T01:09:46;99392.13;;;15.08;82.29
60240;BME280;46102;39.012;-7.064;2023-03-31T01:11:48;99383.03;;;15.07;82.34
60240;BME280;46102;39.012;-7.064;2023-03-31T01:13:52;99383.34;;;15.14;82.31
60240;BME280;46102;39.012;-7.064;2023-03-31T01:15:55;99379.13;;;15.08;82.54
60240;BME280;46102;39.012;-7.064;2023-03-31T01:17:56;99367.91;;;15.13;82.32
60240;BME280;46102;39.012;-7.064;2023-03-31T01:24:53;99364.31;;;15.22;81.87
60240;BME280;46102;39.012;-7.064;2023-03-31T01:29:39;99359.63;;;15.05;82.67
60240;BME280;46102;39.012;-7.064;2023-03-31T01:47:51;99342.09;;;15.01;82.32
60240;BME280;46102;39.012;-7.064;2023-03-31T01:50:04;99333.31;;;14.98;82.36
60240;BME280;46102;39.012;-7.064;2023-03-31T01:52:21;99335.44;;;14.93;82.35
60240;BME280;46102;39.012;-7.064;2023-03-31T01:56:58;99333.97;;;14.95;83.11
60240;BME280;46102;39.012;-7.064;2023-03-31T01:59:17;99346.00;;;14.91;83.32
60240;BME280;46102;39.012;-7.064;2023-03-31T02:01:29;99346.50;;;14.84;83.47
60240;BME280;46102;39.012;-7.064;2023-03-31T02:03:36;99346.81;;;14.91;83.95
60240;BME280;46102;39.012;-7.064;2023-03-31T02:05:46;99337.72;;;14.82;84.35
60240;BME280;46102;39.012;-7.064;2023-03-31T02:07:54;99320.16;;;14.87;84.22
60240;BME280;46102;39.012;-7.064;2023-03-31T02:10:00;99318.72;;;14.72;84.87
60240;BME280;46102;39.012;-7.064;2023-03-31T02:12:07;99324.09;;;14.68;85.23
60240;BME280;46102;39.012;-7.064;2023-03-31T02:14:12;99316.31;;;14.70;85.21
60240;BME280;46102;39.012;-7.064;2023-03-31T02:16:23;99317.88;;;14.54;85.67
60240;BME280;46102;39.012;-7.064;2023-03-31T02:18:27;99318.72;;;14.54;85.43
60240;BME280;46102;39.012;-7.064;2023-03-31T02:20:32;99323.25;;;14.50;85.51
60240;BME280;46102;39.012;-7.064;2023-03-31T02:22:36;99328.91;;;14.45;85.43
60240;BME280;46102;39.012;-7.064;2023-03-31T02:24:38;99327.97;;;14.41;85.87
60240;BME280;46102;39.012;-7.064;2023-03-31T02:29:10;99344.50;;;14.50;85.16
60240;BME280;46102;39.012;-7.064;2023-03-31T02:33:40;99341.91;;;14.36;85.00
60240;BME280;46102;39.012;-7.064;2023-03-31T02:35:41;99334.91;;;14.38;84.94
60240;BME280;46102;39.012;-7.064;2023-03-31T02:37:43;99335.56;;;14.35;84.82
60240;BME280;46102;39.012;-7.064;2023-03-31T02:39:49;99333.47;;;14.32;84.63
60240;BME280;46102;39.012;-7.064;2023-03-31T02:41:52;99325.81;;;14.29;85.14
60240;BME280;46102;39.012;-7.064;2023-03-31T02:43:54;99320.97;;;14.26;85.25
60240;BME280;46102;39.012;-7.064;2023-03-31T02:45:57;99312.19;;;14.24;85.05
60240;BME280;46102;39.012;-7.064;2023-03-31T02:47:58;99320.16;;;14.26;85.67
60240;BME280;46102;39.012;-7.064;2023-03-31T02:50:00;99323.25;;;14.33;85.71
60240;BME280;46102;39.012;-7.064;2023-03-31T02:52:09;99329.88;;;14.41;85.15
60240;BME280;46102;39.012;-7.064;2023-03-31T03:03:55;99322.81;;;14.57;84.37
60240;BME280;46102;39.012;-7.064;2023-03-31T03:06:30;99326.84;;;14.60;84.35
60240;BME280;46102;39.012;-7.064;2023-03-31T03:09:16;99331.06;;;14.66;83.88
60240;BME280;46102;39.012;-7.064;2023-03-31T03:13:45;99325.53;;;14.83;83.18
60240;BME280;46102;39.012;-7.064;2023-03-31T03:15:54;99333.19;;;14.77;83.50
60240;BME280;46102;39.012;-7.064;2023-03-31T03:17:57;99318.22;;;14.78;83.42
60240;BME280;46102;39.012;-7.064;2023-03-31T03:20:00;99316.25;;;14.79;83.29
60240;BME280;46102;39.012;-7.064;2023-03-31T03:22:01;99321.47;;;14.81;83.37
60240;BME280;46102;39.012;-7.064;2023-03-31T03:24:02;99315.28;;;14.92;82.93
60240;BME280;46102;39.012;-7.064;2023-03-31T03:26:03;99318.41;;;14.82;83.43
60240;BME280;46102;39.012;-7.064;2023-03-31T03:28:03;99319.19;;;14.83;83.56
60240;BME280;46102;39.012;-7.064;2023-03-31T03:30:06;99312.88;;;14.82;83.54
60240;BME280;46102;39.012;-7.064;2023-03-31T03:32:09;99316.91;;;14.85;83.11
60240;BME280;46102;39.012;-7.064;2023-03-31T03:34:10;99313.69;;;14.74;83.57
60240;BME280;46102;39.012;-7.064;2023-03-31T03:36:11;99305.41;;;14.74;83.68
60240;BME280;46102;39.012;-7.064;2023-03-31T03:38:12;99312.56;;;14.75;83.74
60240;BME280;46102;39.012;-7.064;2023-03-31T03:40:13;99298.91;;;14.70;84.09
60240;BME280;46102;39.012;-7.064;2023-03-31T03:42:14;99303.78;;;14.73;84.08
60240;BME280;46102;39.012;-7.064;2023-03-31T03:44:15;99300.84;;;14.78;83.99
60240;BME280;46102;39.012;-7.064;2023-03-31T03:46:16;99305.69;;;14.81;83.62
60240;BME280;46102;39.012;-7.064;2023-03-31T03:48:17;99302.81;;;14.77;83.95
60240;BME280;46102;39.012;-7.064;2023-03-31T03:50:18;99304.91;;;14.81;84.14
60240;BME280;46102;39.012;-7.064;2023-03-31T03:52:19;99302.44;;;14.79;84.10
60240;BME280;46102;39.012;-7.064;2023-03-31T03:54:21;99299.88;;;14.83;84.10
60240;BME280;46102;39.012;-7.064;2023-03-31T03:56:21;99296.13;;;14.78;84.21
60240;BME280;46102;39.012;-7.064;2023-03-31T03:58:22;99300.03;;;14.77;84.37
60240;BME280;46102;39.012;-7.064;2023-03-31T04:00:23;99294.34;;;14.83;83.97
60240;BME280;46102;39.012;-7.064;2023-03-31T04:02:24;99293.53;;;14.82;83.80
60240;BME280;46102;39.012;-7.064;2023-03-31T04:04:28;99284.25;;;14.87;83.48
60240;BME280;46102;39.012;-7.064;2023-03-31T04:06:29;99290.59;;;14.87;83.50
60240;BME280;46102;39.012;-7.064;2023-03-31T04:08:30;99290.44;;;14.84;83.60
60240;BME280;46102;39.012;-7.064;2023-03-31T04:10:31;99297.91;;;14.83;83.63
60240;BME280;46102;39.012;-7.064;2023-03-31T04:12:36;99291.09;;;14.89;83.83
60240;BME280;46102;39.012;-7.064;2023-03-31T04:14:36;99291.91;;;14.81;84.04
60240;BME280;46102;39.012;-7.064;2023-03-31T04:16:37;99299.69;;;14.79;84.38
60240;BME280;46102;39.012;-7.064;2023-03-31T04:18:39;99296.13;;;14.78;84.59
60240;BME280;46102;39.012;-7.064;2023-03-31T04:20:44;99296.78;;;14.84;84.69
60240;BME280;46102;39.012;-7.064;2023-03-31T04:22:45;99299.06;;;14.82;84.85
60240;BME280;46102;39.012;-7.064;2023-03-31T04:24:50;99300.66;;;14.83;84.68
60240;BME280;46102;39.012;-7.064;2023-03-31T04:26:52;99291.69;;;14.95;84.49
60240;BME280;46102;39.012;-7.064;2023-03-31T04:28:52;99304.56;;;14.99;84.18
60240;BME280;46102;39.012;-7.064;2023-03-31T04:30:53;99302.59;;;15.00;84.12
60240;BME280;46102;39.012;-7.064;2023-03-31T04:32:56;99299.84;;;14.91;84.47
60240;BME280;46102;39.012;-7.064;2023-03-31T04:34:57;99299.19;;;14.86;85.15
60240;BME280;46102;39.012;-7.064;2023-03-31T04:37:04;99305.69;;;14.81;85.39
60240;BME280;46102;39.012;-7.064;2023-03-31T04:39:04;99296.91;;;14.88;85.73
60240;BME280;46102;39.012;-7.064;2023-03-31T04:41:10;99302.63;;;14.83;86.09
60240;BME280;46102;39.012;-7.064;2023-03-31T04:43:11;99291.28;;;14.75;86.52
60240;BME280;46102;39.012;-7.064;2023-03-31T04:45:12;99293.22;;;14.75;86.46
60240;BME280;46102;39.012;-7.064;2023-03-31T04:47:12;99289.31;;;14.85;86.34
60240;BME280;46102;39.012;-7.064;2023-03-31T04:49:13;99287.84;;;14.78;86.64
60240;BME280;46102;39.012;-7.064;2023-03-31T04:51:14;99280.69;;;14.86;86.38
60240;BME280;46102;39.012;-7.064;2023-03-31T04:53:15;99288.50;;;14.84;85.50
60240;BME280;46102;39.012;-7.064;2023-03-31T04:55:16;99282.47;;;14.82;86.01
60240;BME280;46102;39.012;-7.064;2023-03-31T04:57:17;99283.94;;;14.88;86.00
60240;BME280;46102;39.012;-7.064;2023-03-31T04:59:18;99283.94;;;14.88;85.94
60240;BME280;46102;39.012;-7.064;2023-03-31T05:01:19;99283.59;;;14.81;86.52
60240;BME280;46102;39.012;-7.064;2023-03-31T05:03:20;99285.72;;;14.84;86.38
60240;BME280;46102;39.012;-7.064;2023-03-31T05:05:22;99284.25;;;14.87;86.35
60240;BME280;46102;39.012;-7.064;2023-03-31T05:07:23;99281.84;;;14.76;86.62
60240;BME280;46102;39.012;-7.064;2023-03-31T05:09:24;99283.78;;;14.76;86.87
60240;BME280;46102;39.012;-7.064;2023-03-31T05:11:24;99291.09;;;14.72;87.05
60240;BME280;46102;39.012;-7.064;2023-03-31T05:13:25;99284.94;;;14.75;86.85
60240;BME280;46102;39.012;-7.064;2023-03-31T05:15:26;99287.34;;;14.68;87.12
60240;BME280;46102;39.012;-7.064;2023-03-31T05:17:30;99279.91;;;14.68;87.32
60240;BME280;46102;39.012;-7.064;2023-03-31T05:19:31;99279.56;;;14.70;87.33
60240;BME280;46102;39.012;-7.064;2023-03-31T05:21:32;99277.16;;;14.60;87.52
60240;BME280;46102;39.012;-7.064;2023-03-31T05:23:33;99276.63;;;14.49;88.20
60240;BME280;46102;39.012;-7.064;2023-03-31T05:25:34;99273.88;;;14.40;88.92
60240;BME280;46102;39.012;-7.064;2023-03-31T05:27:35;99281.84;;;14.50;88.46
60240;BME280;46102;39.012;-7.064;2023-03-31T05:29:36;99272.44;;;14.60;87.67
60240;BME280;46102;39.012;-7.064;2023-03-31T05:31:37;99281.66;;;14.47;88.27
60240;BME280;46102;39.012;-7.064;2023-03-31T05:33:37;99283.13;;;14.35;89.50
60240;BME280;46102;39.012;-7.064;2023-03-31T05:35:40;99285.91;;;14.44;89.12
60240;BME280;46102;39.012;-7.064;2023-03-31T05:37:41;99291.59;;;14.48;88.95
60240;BME280;46102;39.012;-7.064;2023-03-31T05:39:42;99292.53;;;14.43;89.29
60240;BME280;46102;39.012;-7.064;2023-03-31T05:41:43;99298.91;;;14.44;89.49
60240;BME280;46102;39.012;-7.064;2023-03-31T05:43:44;99303.47;;;14.57;88.78
60240;BME280;46102;39.012;-7.064;2023-03-31T05:45:45;99310.75;;;14.53;88.79
60240;BME280;46102;39.012;-7.064;2023-03-31T05:47:46;99304.09;;;14.63;88.42
60240;BME280;46102;39.012;-7.064;2023-03-31T05:49:47;99306.84;;;14.54;88.51
60240;BME280;46102;39.012;-7.064;2023-03-31T05:51:48;99297.75;;;14.45;88.91
60240;BME280;46102;39.012;-7.064;2023-03-31T05:53:49;99314.63;;;14.43;89.11
60240;BME280;46102;39.012;-7.064;2023-03-31T05:55:57;99318.72;;;14.46;88.39
60240;BME280;46102;39.012;-7.064;2023-03-31T05:57:58;99318.53;;;14.51;87.71
60240;BME280;46102;39.012;-7.064;2023-03-31T05:59:59;99319.34;;;14.43;87.78
60240;BME280;46102;39.012;-7.064;2023-03-31T06:02:01;99322.09;;;14.43;87.54
60240;BME280;46102;39.012;-7.064;2023-03-31T06:04:02;99318.53;;;14.33;88.10
60240;BME280;46102;39.012;-7.064;2023-03-31T06:06:04;99314.78;;;14.29;88.15
60240;BME280;46102;39.012;-7.064;2023-03-31T06:08:05;99317.56;;;14.38;87.55
60240;BME280;46102;39.012;-7.064;2023-03-31T06:10:07;99310.72;;;14.27;87.87
60240;BME280;46102;39.012;-7.064;2023-03-31T06:12:09;99305.69;;;14.29;87.82
60240;BME280;46102;39.012;-7.064;2023-03-31T06:14:10;99303.25;;;14.27;87.42
60240;BME280;46102;39.012;-7.064;2023-03-31T06:16:12;99307.34;;;14.30;87.18
60240;BME280;46102;39.012;-7.064;2023-03-31T06:18:14;99307.97;;;14.27;87.37
60240;BME280;46102;39.012;-7.064;2023-03-31T06:20:14;99300.16;;;14.20;87.37
60240;BME280;46102;39.012;-7.064;2023-03-31T06:22:15;99297.09;;;14.13;87.89
60240;BME280;46102;39.012;-7.064;2023-03-31T06:24:16;99299.84;;;14.22;87.95
60240;BME280;46102;39.012;-7.064;2023-03-31T06:26:18;99303.09;;;14.24;87.74
60240;BME280;46102;39.012;-7.064;2023-03-31T06:28:19;99308.44;;;14.20;87.97
60240;BME280;46102;39.012;-7.064;2023-03-31T06:30:20;99313.34;;;14.23;87.69
60240;BME280;46102;39.012;-7.064;2023-03-31T06:32:21;99321.13;;;14.30;87.58
60240;BME280;46102;39.012;-7.064;2023-03-31T06:34:22;99327.28;;;14.18;88.03
60240;BME280;46102;39.012;-7.064;2023-03-31T06:36:23;99319.16;;;14.13;88.45
60240;BME280;46102;39.012;-7.064;2023-03-31T06:38:24;99329.88;;;14.14;88.78
60240;BME280;46102;39.012;-7.064;2023-03-31T06:40:25;99331.00;;;14.13;88.99
60240;BME280;46102;39.012;-7.064;2023-03-31T06:42:26;99334.25;;;14.15;89.00
60240;BME280;46102;39.012;-7.064;2023-03-31T06:44:27;99343.66;;;14.14;89.24
60240;BME280;46102;39.012;-7.064;2023-03-31T06:46:27;99339.94;;;14.19;89.05
60240;BME280;46102;39.012;-7.064;2023-03-31T06:48:28;99344.81;;;14.22;88.84
60240;BME280;46102;39.012;-7.064;2023-03-31T06:50:29;99342.03;;;14.22;89.25
60240;BME280;46102;39.012;-7.064;2023-03-31T06:52:30;99346.94;;;14.25;88.83
60240;BME280;46102;39.012;-7.064;2023-03-31T06:54:31;99339.78;;;14.24;89.24
60240;BME280;46102;39.012;-7.064;2023-03-31T06:56:32;99353.91;;;14.14;89.99
60240;BME280;46102;39.012;-7.064;2023-03-31T06:58:33;99348.19;;;14.10;90.50
60240;BME280;46102;39.012;-7.064;2023-03-31T07:00:34;99350.94;;;14.02;91.34
60240;BME280;46102;39.012;-7.064;2023-03-31T07:02:35;99355.19;;;14.08;90.97
60240;BME280;46102;39.012;-7.064;2023-03-31T07:04:36;99347.41;;;14.10;90.95
60240;BME280;46102;39.012;-7.064;2023-03-31T07:06:37;99343.34;;;14.16;90.61
60240;BME280;46102;39.012;-7.064;2023-03-31T07:08:38;99345.00;;;14.26;90.45
60240;BME280;46102;39.012;-7.064;2023-03-31T07:10:38;99346.09;;;14.25;90.02
60240;BME280;46102;39.012;-7.064;2023-03-31T07:12:39;99348.88;;;14.33;89.80
60240;BME280;46102;39.012;-7.064;2023-03-31T07:14:40;99341.09;;;14.27;90.36
60240;BME280;46102;39.012;-7.064;2023-03-31T07:16:41;99353.28;;;14.26;90.41
60240;BME280;46102;39.012;-7.064;2023-03-31T07:18:41;99345.13;;;14.29;90.44
60240;BME280;46102;39.012;-7.064;2023-03-31T07:20:42;99349.69;;;14.25;90.80
60240;BME280;46102;39.012;-7.064;2023-03-31T07:22:45;99350.84;;;14.33;90.22
60240;BME280;46102;39.012;-7.064;2023-03-31T07:24:46;99361.88;;;14.33;90.30
60240;BME280;46102;39.012;-7.064;2023-03-31T07:26:47;99348.25;;;14.36;90.19
60240;BME280;46102;39.012;-7.064;2023-03-31T07:28:47;99352.28;;;14.22;91.29
60240;BME280;46102;39.012;-7.064;2023-03-31T07:30:48;99351.59;;;14.16;92.48
60240;BME280;46102;39.012;-7.064;2023-03-31T07:32:50;99354.38;;;14.16;92.57
60240;BME280;46102;39.012;-7.064;2023-03-31T07:34:51;99362.03;;;14.19;92.86
60240;BME280;46102;39.012;-7.064;2023-03-31T07:36:55;99369.66;;;14.31;92.38
60240;BME280;46102;39.012;-7.064;2023-03-31T07:38:56;99366.75;;;14.36;92.21
60240;BME280;46102;39.012;-7.064;2023-03-31T07:40:57;99372.94;;;14.42;91.77
60240;BME280;46102;39.012;-7.064;2023-03-31T07:42:58;99374.53;;;14.43;91.78
60240;BME280;46102;39.012;-7.064;2023-03-31T07:44:59;99371.31;;;14.49;91.64
60240;BME280;46102;39.012;-7.064;2023-03-31T07:47:00;99362.72;;;14.51;91.43
60240;BME280;46102;39.012;-7.064;2023-03-31T07:49:04;99368.53;;;14.49;91.61
60240;BME280;46102;39.012;-7.064;2023-03-31T07:51:05;99363.38;;;14.56;91.14
60240;BME280;46102;39.012;-7.064;2023-03-31T07:53:09;99369.72;;;14.66;90.96
60240;BME280;46102;39.012;-7.064;2023-03-31T07:55:10;99369.41;;;14.67;90.60
60240;BME280;46102;39.012;-7.064;2023-03-31T07:57:11;99369.88;;;14.69;90.60
60240;BME280;46102;39.012;-7.064;2023-03-31T07:59:13;99369.22;;;14.72;90.76
60240;BME280;46102;39.012;-7.064;2023-03-31T08:01:16;99371.19;;;14.81;90.35
60240;BME280;46102;39.012;-7.064;2023-03-31T08:03:18;99375.41;;;14.87;90.23
60240;BME280;46102;39.012;-7.064;2023-03-31T08:05:19;99364.50;;;14.90;89.86
60240;BME280;46102;39.012;-7.064;2023-03-31T08:07:21;99379.66;;;14.93;89.87
60240;BME280;46102;39.012;-7.064;2023-03-31T08:09:21;99371.69;;;14.91;90.01
60240;BME280;46102;39.012;-7.064;2023-03-31T08:11:25;99378.66;;;14.89;90.36
60240;BME280;46102;39.012;-7.064;2023-03-31T08:13:25;99372.97;;;14.94;90.21
60240;BME280;46102;39.012;-7.064;2023-03-31T08:15:26;99370.88;;;14.99;90.22
60240;BME280;46102;39.012;-7.064;2023-03-31T08:17:27;99365.66;;;15.07;90.01
60240;BME280;46102;39.012;-7.064;2023-03-31T08:19:28;99362.53;;;15.17;89.70
60240;BME280;46102;39.012;-7.064;2023-03-31T08:21:31;99362.19;;;15.27;89.31
60240;BME280;46102;39.012;-7.064;2023-03-31T08:23:32;99364.63;;;15.29;89.18
60240;BME280;46102;39.012;-7.064;2023-03-31T08:25:33;99362.19;;;15.36;89.04
60240;BME280;46102;39.012;-7.064;2023-03-31T08:27:35;99369.47;;;15.49;88.41
60240;BME280;46102;39.012;-7.064;2023-03-31T08:29:36;99363.72;;;15.63;87.21
60240;BME280;46102;39.012;-7.064;2023-03-31T08:31:37;99370.06;;;15.72;87.04
60240;BME280;46102;39.012;-7.064;2023-03-31T08:33:38;99370.66;;;15.78;86.73
60240;BME280;46102;39.012;-7.064;2023-03-31T08:35:39;99382.50;;;15.87;86.43
60240;BME280;46102;39.012;-7.064;2023-03-31T08:37:40;99380.84;;;15.95;86.11
60240;BME280;46102;39.012;-7.064;2023-03-31T08:39:40;99373.00;;;16.06;85.65
60240;BME280;46102;39.012;-7.064;2023-03-31T08:41:53;99378.53;;;16.06;85.88
60240;BME280;46102;39.012;-7.064;2023-03-31T08:43:58;99380.41;;;16.14;85.78
60240;BME280;46102;39.012;-7.064;2023-03-31T08:46:02;99379.41;;;16.18;85.79
60240;BME280;46102;39.012;-7.064;2023-03-31T08:50:19;99373.06;;;16.18;86.12
60240;BME280;46102;39.012;-7.064;2023-03-31T08:52:30;99381.13;;;16.32;86.00
60240;BME280;46102;39.012;-7.064;2023-03-31T08:54:42;99375.78;;;16.27;87.07
60240;BME280;46102;39.012;-7.064;2023-03-31T08:56:46;99383.56;;;16.33;88.04
60240;BME280;46102;39.012;-7.064;2023-03-31T08:58:50;99384.06;;;16.35;88.30
60240;BME280;46102;39.012;-7.064;2023-03-31T09:01:06;99394.44;;;16.38;88.14
60240;BME280;46102;39.012;-7.064;2023-03-31T09:03:19;99390.34;;;16.44;88.06
60240;BME280;46102;39.012;-7.064;2023-03-31T09:12:20;99396.72;;;17.08;81.54
60240;BME280;46102;39.012;-7.064;2023-03-31T09:14:32;99406.66;;;17.09;81.57
60240;BME280;46102;39.012;-7.064;2023-03-31T09:16:39;99408.59;;;17.09;80.62
60240;BME280;46102;39.012;-7.064;2023-03-31T09:18:43;99410.09;;;17.27;80.09
60240;BME280;46102;39.012;-7.064;2023-03-31T09:20:49;99408.28;;;17.43;79.12
60240;BME280;46102;39.012;-7.064;2023-03-31T09:22:56;99425.56;;;17.61;76.63
60240;BME280;46102;39.012;-7.064;2023-03-31T09:25:02;99411.81;;;17.77;74.99
60240;BME280;46102;39.012;-7.064;2023-03-31T09:27:07;99413.25;;;17.83;73.26
60240;BME280;46102;39.012;-7.064;2023-03-31T09:29:15;99409.63;;;17.71;73.56
60240;BME280;46102;39.012;-7.064;2023-03-31T09:31:19;99417.25;;;17.74;73.49
60240;BME280;46102;39.012;-7.064;2023-03-31T09:33:30;99412.97;;;17.76;73.52
60240;BME280;46102;39.012;-7.064;2023-03-31T09:35:33;99424.22;;;17.92;72.85
60240;BME280;46102;39.012;-7.064;2023-03-31T09:37:34;99419.16;;;18.06;71.36
60240;BME280;46102;39.012;-7.064;2023-03-31T09:39:35;99420.66;;;18.16;70.20
60240;BME280;46102;39.012;-7.064;2023-03-31T09:41:36;99430.50;;;18.26;69.37
60240;BME280;46102;39.012;-7.064;2023-03-31T09:43:37;99425.97;;;18.21;69.49
60240;BME280;46102;39.012;-7.064;2023-03-31T09:45:40;99424.94;;;18.26;69.07
60240;BME280;46102;39.012;-7.064;2023-03-31T09:47:43;99424.03;;;18.22;69.26
60240;BME280;46102;39.012;-7.064;2023-03-31T09:49:46;99419.50;;;18.29;68.64
60240;BME280;46102;39.012;-7.064;2023-03-31T09:51:52;99412.91;;;18.34;67.75
60240;BME280;46102;39.012;-7.064;2023-03-31T09:54:05;99413.59;;;18.43;67.63
60240;BME280;46102;39.012;-7.064;2023-03-31T09:56:08;99416.97;;;18.49;66.30
60240;BME280;46102;39.012;-7.064;2023-03-31T09:58:15;99408.50;;;18.58;65.49
60240;BME280;46102;39.012;-7.064;2023-03-31T10:00:19;99407.66;;;18.69;65.37
60240;BME280;46102;39.012;-7.064;2023-03-31T10:04:34;99396.78;;;19.05;63.64
60240;BME280;46102;39.012;-7.064;2023-03-31T10:06:39;99398.44;;;19.06;64.11
60240;BME280;46102;39.012;-7.064;2023-03-31T10:10:49;99381.81;;;19.38;62.83
60240;BME280;46102;39.012;-7.064;2023-03-31T10:12:51;99381.75;;;19.50;61.42
60240;BME280;46102;39.012;-7.064;2023-03-31T10:15:17;99389.22;;;19.62;60.97
60240;BME280;46102;39.012;-7.064;2023-03-31T10:17:18;99384.66;;;19.85;60.37
60240;BME280;46102;39.012;-7.064;2023-03-31T10:19:27;99390.22;;;20.01;59.52
60240;BME280;46102;39.012;-7.064;2023-03-31T10:21:35;99393.28;;;20.12;58.43
60240;BME280;46102;39.012;-7.064;2023-03-31T10:23:36;99391.31;;;20.12;58.40
60240;BME280;46102;39.012;-7.064;2023-03-31T10:25:37;99398.97;;;20.15;58.35
60240;BME280;46102;39.012;-7.064;2023-03-31T10:27:38;99390.59;;;20.15;58.28
60240;BME280;46102;39.012;-7.064;2023-03-31T10:29:41;99403.19;;;20.09;59.04
60240;BME280;46102;39.012;-7.064;2023-03-31T10:31:42;99393.63;;;20.10;59.30
60240;BME280;46102;39.012;-7.064;2023-03-31T10:33:46;99397.25;;;19.95;59.44
60240;BME280;46102;39.012;-7.064;2023-03-31T10:35:53;99402.16;;;19.70;60.39
60240;BME280;46102;39.012;-7.064;2023-03-31T10:37:58;99401.66;;;19.52;61.46
60240;BME280;46102;39.012;-7.064;2023-03-31T10:40:04;99401.59;;;19.48;61.58
60240;BME280;46102;39.012;-7.064;2023-03-31T10:42:20;99403.16;;;19.33;62.22
60240;BME280;46102;39.012;-7.064;2023-03-31T10:46:43;99407.41;;;19.15;63.89
60240;BME280;46102;39.012;-7.064;2023-03-31T10:48:46;99404.59;;;18.99;66.19
60240;BME280;46102;39.012;-7.064;2023-03-31T10:50:47;99402.47;;;18.80;68.35
60240;BME280;46102;39.012;-7.064;2023-03-31T10:52:48;99403.72;;;18.70;69.85
60240;BME280;46102;39.012;-7.064;2023-03-31T10:54:55;99397.72;;;18.44;71.15
60240;BME280;46102;39.012;-7.064;2023-03-31T10:56:59;99402.69;;;18.50;72.55
60240;BME280;46102;39.012;-7.064;2023-03-31T11:01:13;99393.56;;;18.50;70.69
60240;BME280;46102;39.012;-7.064;2023-03-31T11:03:34;99399.56;;;18.52;65.84
60240;BME280;46102;39.012;-7.064;2023-03-31T11:05:49;99396.13;;;18.43;66.77
60240;BME280;46102;39.012;-7.064;2023-03-31T11:12:45;99392.75;;;18.49;66.35
60240;BME280;46102;39.012;-7.064;2023-03-31T11:26:30;99397.97;;;19.04;66.90
60240;BME280;46102;39.012;-7.064;2023-03-31T11:28:51;99394.78;;;19.18;64.94
60240;BME280;46102;39.012;-7.064;2023-03-31T11:37:55;99379.47;;;19.24;63.24
60240;BME280;46102;39.012;-7.064;2023-03-31T11:42:17;99385.69;;;19.49;61.27
60240;BME280;46102;39.012;-7.064;2023-03-31T11:44:21;99390.81;;;19.63;60.91
60240;BME280;46102;39.012;-7.064;2023-03-31T11:48:52;99381.31;;;20.27;59.51
60240;BME280;46102;39.012;-7.064;2023-03-31T11:50:58;99377.31;;;20.44;58.55
60240;BME280;46102;39.012;-7.064;2023-03-31T11:53:10;99360.31;;;20.65;57.19
60240;BME280;46102;39.012;-7.064;2023-03-31T11:55:20;99362.88;;;21.13;55.87
60240;BME280;46102;39.012;-7.064;2023-03-31T11:57:30;99356.94;;;21.57;54.33
60240;BME280;46102;39.012;-7.064;2023-03-31T11:59:33;99353.22;;;21.95;53.06
60240;BME280;46102;39.012;-7.064;2023-03-31T12:04:08;99359.31;;;22.84;49.83
60240;BME280;46102;39.012;-7.064;2023-03-31T12:06:19;99357.22;;;22.78;49.38
60240;BME280;46102;39.012;-7.064;2023-03-31T12:10:42;99352.03;;;23.10;48.78
60240;BME280;46102;39.012;-7.064;2023-03-31T12:12:54;99346.63;;;23.24;47.49
60240;BME280;46102;39.012;-7.064;2023-03-31T12:15:13;99343.84;;;23.28;47.61
60240;BME280;46102;39.012;-7.064;2023-03-31T12:17:22;99345.59;;;23.43;46.44
60240;BME280;46102;39.012;-7.064;2023-03-31T12:19:33;99337.78;;;23.60;46.33
60240;BME280;46102;39.012;-7.064;2023-03-31T12:21:38;99330.09;;;23.53;45.93